createdAt,value
2023-05-14T00:00:41.410Z,89.50
2023-05-14T00:03:05.392Z,89.80
2023-05-14T00:05:28.861Z,90.00
2023-05-14T00:07:53.472Z,90.20
2023-05-14T00:10:17.633Z,90.10
2023-05-14T00:12:40.915Z,90.30
2023-05-14T00:15:04.303Z,90.30
2023-05-14T00:17:27.679Z,90.30
2023-05-14T00:19:51.225Z,90.10
2023-05-14T00:22:14.535Z,90.30
2023-05-14T00:24:39.140Z,90.30
2023-05-14T00:27:02.613Z,90.40
2023-05-14T00:29:26.006Z,90.50
2023-05-14T00:31:49.436Z,90.30
2023-05-14T00:34:12.745Z,90.30
2023-05-14T00:36:36.077Z,90.50
2023-05-14T00:38:59.401Z,90.60
2023-05-14T00:41:24.235Z,90.90
2023-05-14T00:43:47.593Z,91.10
2023-05-14T00:46:12.401Z,91.10
2023-05-14T00:48:35.768Z,91.10
2023-05-14T00:50:59.274Z,91.10
2023-05-14T00:53:23.788Z,91.20
2023-05-14T00:55:48.139Z,91.30
2023-05-14T00:58:14.829Z,91.10
2023-05-14T01:00:38.651Z,91.20
2023-05-14T01:03:03.130Z,91.00
2023-05-14T01:05:31.021Z,91.20
2023-05-14T01:08:05.311Z,91.10
2023-05-14T01:10:35.605Z,91.50
2023-05-14T01:13:21.194Z,91.40
2023-05-14T01:15:47.770Z,91.50
2023-05-14T01:18:12.657Z,91.10
2023-05-14T01:20:36.499Z,91.20
2023-05-14T01:23:01.298Z,91.00
2023-05-14T01:25:24.682Z,91.30
2023-05-14T01:27:56.336Z,91.40
2023-05-14T01:30:25.333Z,91.50
2023-05-14T01:32:53.155Z,91.20
2023-05-14T01:35:16.755Z,91.30
2023-05-14T01:37:41.280Z,91.60
2023-05-14T01:40:11.322Z,91.90
2023-05-14T01:42:34.766Z,92.00
2023-05-14T01:44:58.615Z,92.30
2023-05-14T01:47:21.924Z,92.60
2023-05-14T01:49:45.359Z,92.60
2023-05-14T01:52:09.484Z,92.50
2023-05-14T01:54:32.756Z,92.20
2023-05-14T01:56:57.365Z,92.40
2023-05-14T01:59:20.647Z,92.70
2023-05-14T02:01:43.953Z,92.80
2023-05-14T02:04:07.374Z,92.60
2023-05-14T02:06:34.944Z,92.60
2023-05-14T02:08:58.781Z,92.40
2023-05-14T02:11:22.129Z,92.20
2023-05-14T02:13:46.826Z,92.20
2023-05-14T02:16:10.751Z,92.10
2023-05-14T02:18:34.178Z,91.90
2023-05-14T02:20:57.838Z,91.80
2023-05-14T02:23:28.063Z,91.90
2023-05-14T02:25:57.624Z,91.80
2023-05-14T02:28:20.856Z,91.70
2023-05-14T02:30:45.725Z,91.70
2023-05-14T02:33:09.080Z,91.70
2023-05-14T02:35:32.579Z,91.60
2023-05-14T02:37:56.259Z,91.60
2023-05-14T02:40:19.575Z,91.90
2023-05-14T02:42:43.028Z,91.90
2023-05-14T02:45:08.015Z,92.00
2023-05-14T02:47:33.044Z,92.00
2023-05-14T02:49:56.292Z,92.10
2023-05-14T02:52:19.764Z,92.20
2023-05-14T02:54:43.075Z,92.50
2023-05-14T02:57:06.945Z,92.70
2023-05-14T02:59:31.497Z,92.70
2023-05-14T03:01:55.426Z,93.00
2023-05-14T03:04:20.675Z,92.90
2023-05-14T03:06:43.963Z,93.00
2023-05-14T03:09:07.859Z,93.10
2023-05-14T03:11:31.337Z,93.00
2023-05-14T03:13:54.646Z,92.80
2023-05-14T03:16:17.940Z,93.00
2023-05-14T03:18:41.487Z,92.90
2023-05-14T03:21:08.951Z,92.90
2023-05-14T03:23:34.910Z,92.90
2023-05-14T03:25:58.138Z,92.70
2023-05-14T03:28:21.475Z,92.90
2023-05-14T03:30:44.830Z,92.60
2023-05-14T03:33:08.183Z,92.90
2023-05-14T03:35:31.499Z,92.70
2023-05-14T03:38:00.849Z,92.80
2023-05-14T03:40:24.394Z,92.70
2023-05-14T03:42:48.143Z,92.50
2023-05-14T03:45:12.914Z,92.60
2023-05-14T03:47:36.201Z,92.60
2023-05-14T03:49:59.791Z,92.70
2023-05-14T03:52:23.009Z,92.60
2023-05-14T03:54:47.673Z,92.50
2023-05-14T03:57:12.027Z,92.40
2023-05-14T03:59:35.442Z,92.40
2023-05-14T04:01:58.815Z,92.30
2023-05-14T04:04:22.738Z,92.40
2023-05-14T04:06:46.101Z,92.50
2023-05-14T04:09:10.882Z,92.50
2023-05-14T04:11:35.672Z,92.50
2023-05-14T04:13:58.955Z,92.50
2023-05-14T04:16:22.339Z,92.50
2023-05-14T04:18:46.070Z,92.60
2023-05-14T04:21:09.364Z,92.60
2023-05-14T04:23:32.785Z,92.70
2023-05-14T04:25:56.187Z,92.60
2023-05-14T04:28:21.089Z,92.60
2023-05-14T04:30:45.667Z,92.60
2023-05-14T04:33:09.085Z,92.50
2023-05-14T04:35:32.391Z,92.50
2023-05-14T04:37:55.726Z,92.40
2023-05-14T04:40:19.283Z,92.50
2023-05-14T04:42:42.468Z,92.50
2023-05-14T04:45:08.825Z,92.50
2023-05-14T04:47:32.088Z,92.50
2023-05-14T04:49:55.497Z,92.40
2023-05-14T04:52:18.800Z,92.50
2023-05-14T04:54:42.165Z,92.60
2023-05-14T04:57:06.598Z,92.60
2023-05-14T04:59:29.985Z,92.70
2023-05-14T05:01:54.714Z,92.60
2023-05-14T05:04:18.168Z,92.50
2023-05-14T05:06:41.687Z,92.50
2023-05-14T05:09:05.494Z,92.50
2023-05-14T05:11:28.737Z,92.60
2023-05-14T05:13:52.373Z,92.70
2023-05-14T05:16:15.931Z,92.80
2023-05-14T05:18:40.819Z,92.90
2023-05-14T05:21:04.315Z,92.90
2023-05-14T05:23:28.677Z,92.90
2023-05-14T05:25:52.175Z,92.90
2023-05-14T05:28:16.129Z,92.90
2023-05-14T05:30:39.422Z,93.10
2023-05-14T05:33:02.777Z,93.00
2023-05-14T05:35:27.459Z,92.80
2023-05-14T05:37:50.985Z,92.60
2023-05-14T05:40:15.721Z,92.50
2023-05-14T05:42:39.029Z,92.10
2023-05-14T05:45:02.343Z,91.30
2023-05-14T05:47:25.780Z,90.80
2023-05-14T05:49:49.045Z,90.50
2023-05-14T05:52:13.995Z,90.40
2023-05-14T05:54:39.748Z,90.20
2023-05-14T05:57:03.009Z,89.60
2023-05-14T05:59:26.698Z,90.00
2023-05-14T06:01:50.017Z,90.00
2023-05-14T06:04:13.304Z,89.30
2023-05-14T06:06:36.729Z,88.30
2023-05-14T06:09:02.039Z,88.50
2023-05-14T06:11:25.930Z,88.80
2023-05-14T06:13:49.207Z,88.90
2023-05-14T06:16:12.582Z,89.80
2023-05-14T06:18:36.053Z,89.20
2023-05-14T06:21:00.164Z,88.60
2023-05-14T06:23:23.660Z,85.10
2023-05-14T06:25:50.607Z,87.00
2023-05-14T06:28:14.045Z,85.70
2023-05-14T06:30:37.374Z,84.80
2023-05-14T06:33:00.694Z,83.20
2023-05-14T06:35:25.649Z,83.60
2023-05-14T06:37:48.889Z,85.40
2023-05-14T06:40:15.627Z,82.20
2023-05-14T06:42:40.278Z,81.00
2023-05-14T06:45:03.878Z,80.90
2023-05-14T06:47:27.285Z,81.60
2023-05-14T06:49:50.672Z,80.60
2023-05-14T06:52:13.971Z,83.00
2023-05-14T06:54:37.221Z,82.30
2023-05-14T06:57:00.518Z,82.70
2023-05-14T06:59:25.322Z,80.90
2023-05-14T07:01:49.053Z,79.30
2023-05-14T07:04:12.538Z,79.30
2023-05-14T07:06:36.032Z,81.70
2023-05-14T07:08:59.329Z,79.50
2023-05-14T07:11:23.153Z,77.90
2023-05-14T07:13:46.525Z,79.20
2023-05-14T07:16:11.375Z,79.00
2023-05-14T07:18:34.845Z,80.70
2023-05-14T07:20:58.219Z,78.80
2023-05-14T07:23:21.611Z,78.50
2023-05-14T07:25:45.062Z,77.30
2023-05-14T07:28:08.305Z,78.60
2023-05-14T07:30:31.855Z,73.90
2023-05-14T07:32:56.644Z,73.20
2023-05-14T07:35:19.951Z,76.60
2023-05-14T07:37:43.885Z,75.20
2023-05-14T07:40:08.859Z,74.80
2023-05-14T07:42:36.787Z,75.40
2023-05-14T07:45:00.750Z,76.10
2023-05-14T07:47:24.211Z,76.20
2023-05-14T07:49:48.926Z,74.90
2023-05-14T07:52:12.344Z,74.00
2023-05-14T07:54:35.779Z,71.00
2023-05-14T07:56:59.050Z,70.90
2023-05-14T07:59:22.547Z,74.00
2023-05-14T08:01:46.044Z,74.90
2023-05-14T08:04:11.647Z,72.20
2023-05-14T08:06:37.201Z,71.10
2023-05-14T08:09:00.740Z,69.90
2023-05-14T08:11:24.014Z,69.80
2023-05-14T08:13:47.279Z,67.30
2023-05-14T08:16:10.634Z,68.30
2023-05-14T08:18:33.952Z,68.30
2023-05-14T08:20:57.212Z,71.80
2023-05-14T08:23:22.500Z,72.10
2023-05-14T08:25:45.774Z,65.60
2023-05-14T08:28:09.425Z,66.40
2023-05-14T08:30:32.768Z,66.60
2023-05-14T08:32:56.116Z,67.00
2023-05-14T08:35:20.160Z,70.30
2023-05-14T08:37:43.429Z,73.00
2023-05-14T08:40:10.798Z,73.00
2023-05-14T08:42:34.511Z,70.80
2023-05-14T08:45:02.625Z,68.90
2023-05-14T08:47:26.746Z,68.70
2023-05-14T08:49:58.067Z,68.60
2023-05-14T08:52:23.551Z,68.90
2023-05-14T08:54:49.291Z,69.90
2023-05-14T08:57:14.422Z,68.90
2023-05-14T08:59:37.918Z,70.40
2023-05-14T09:02:04.989Z,66.70
2023-05-14T09:04:29.721Z,69.10
2023-05-14T09:06:54.814Z,66.30
2023-05-14T09:09:18.580Z,65.60
2023-05-14T09:11:47.099Z,68.60
2023-05-14T09:14:11.839Z,64.60
2023-05-14T09:16:36.981Z,65.40
2023-05-14T09:19:00.398Z,65.60
2023-05-14T09:21:24.119Z,58.30
2023-05-14T09:23:49.711Z,59.60
2023-05-14T09:26:13.592Z,55.30
2023-05-14T09:28:37.052Z,54.30
2023-05-14T09:31:03.581Z,54.40
2023-05-14T09:33:31.077Z,58.20
2023-05-14T09:35:59.854Z,58.00
2023-05-14T09:38:29.568Z,63.40
2023-05-14T09:40:53.183Z,55.70
2023-05-14T09:43:16.907Z,55.70
2023-05-14T09:45:41.877Z,56.30
2023-05-14T09:48:07.479Z,56.30
2023-05-14T09:50:31.220Z,56.90
2023-05-14T09:52:56.620Z,57.90
2023-05-14T09:55:21.489Z,60.50
2023-05-14T09:57:45.110Z,59.60
2023-05-14T10:00:10.453Z,58.70
2023-05-14T10:02:38.917Z,55.50
2023-05-14T10:05:06.227Z,56.20
2023-05-14T10:07:38.124Z,56.70
2023-05-14T10:10:06.345Z,55.20
2023-05-14T10:12:34.605Z,56.70
2023-05-14T10:15:00.574Z,56.70
2023-05-14T10:17:26.409Z,57.40
2023-05-14T10:19:55.591Z,54.10
2023-05-14T10:22:24.358Z,55.70
2023-05-14T10:24:48.311Z,54.60
2023-05-14T10:27:11.859Z,53.30
2023-05-14T10:29:37.306Z,52.00
2023-05-14T10:32:05.285Z,57.90
2023-05-14T10:34:41.072Z,50.50
2023-05-14T10:37:06.329Z,48.40
2023-05-14T10:39:44.879Z,53.70
2023-05-14T10:42:09.757Z,49.80
2023-05-14T10:44:36.545Z,53.60
2023-05-14T10:47:00.806Z,54.20
2023-05-14T10:49:39.833Z,50.60
2023-05-14T10:52:09.717Z,53.60
2023-05-14T10:54:36.994Z,54.20
2023-05-14T10:57:02.274Z,56.60
2023-05-14T10:59:29.083Z,57.30
2023-05-14T11:01:52.509Z,53.40
2023-05-14T11:04:20.248Z,54.50
2023-05-14T11:06:44.397Z,57.60
2023-05-14T11:09:08.413Z,58.10
2023-05-14T11:11:31.791Z,58.10
2023-05-14T11:13:57.506Z,59.90
2023-05-14T11:16:24.383Z,55.80
2023-05-14T11:18:47.885Z,57.50
2023-05-14T11:21:11.363Z,57.80
2023-05-14T11:23:34.629Z,60.10
2023-05-14T11:25:58.395Z,55.00
2023-05-14T11:28:22.877Z,55.60
2023-05-14T11:30:47.655Z,56.60
2023-05-14T11:33:10.960Z,55.80
2023-05-14T11:35:34.379Z,54.10
2023-05-14T11:37:57.760Z,50.80
2023-05-14T11:40:21.657Z,52.80
2023-05-14T11:42:45.166Z,47.40
2023-05-14T11:45:12.317Z,43.60
2023-05-14T11:47:36.993Z,46.50
2023-05-14T11:50:01.842Z,42.30
2023-05-14T11:52:25.208Z,41.60
2023-05-14T11:54:49.662Z,41.40
2023-05-14T11:57:15.411Z,47.80
2023-05-14T11:59:39.324Z,44.10
2023-05-14T12:02:03.813Z,39.90
2023-05-14T12:04:30.194Z,36.70
2023-05-14T12:06:54.863Z,39.30
2023-05-14T12:09:19.118Z,40.70
2023-05-14T12:11:42.376Z,39.90
2023-05-14T12:14:15.698Z,41.60
2023-05-14T12:16:42.578Z,40.70
2023-05-14T12:19:06.083Z,40.70
2023-05-14T12:21:31.495Z,38.50
2023-05-14T12:23:59.797Z,43.00
2023-05-14T12:26:23.610Z,45.40
2023-05-14T12:28:49.288Z,40.30
2023-05-14T12:31:12.790Z,38.20
2023-05-14T12:33:36.288Z,37.60
2023-05-14T12:36:09.934Z,38.30
2023-05-14T12:38:40.900Z,39.80
2023-05-14T12:41:04.522Z,40.10
2023-05-14T12:43:31.474Z,43.40
2023-05-14T12:45:55.342Z,38.10
2023-05-14T12:48:18.610Z,37.10
2023-05-14T12:50:41.865Z,43.70
2023-05-14T12:53:05.533Z,41.40
2023-05-14T12:55:30.199Z,40.80
2023-05-14T12:57:53.526Z,44.10
2023-05-14T13:00:17.659Z,41.80
2023-05-14T13:02:43.034Z,43.60
2023-05-14T13:05:07.357Z,40.40
2023-05-14T13:07:31.524Z,44.90
2023-05-14T13:09:55.248Z,41.30
2023-05-14T13:12:19.917Z,42.90
2023-05-14T13:14:43.192Z,41.20
2023-05-14T13:17:08.017Z,43.90
2023-05-14T13:19:31.407Z,43.20
2023-05-14T13:21:54.702Z,38.90
2023-05-14T13:24:18.041Z,41.40
2023-05-14T13:26:41.315Z,38.80
2023-05-14T13:29:06.821Z,39.00
2023-05-14T13:31:30.284Z,42.10
2023-05-14T13:33:53.621Z,40.60
2023-05-14T13:36:17.016Z,41.40
2023-05-14T13:38:40.510Z,39.90
2023-05-14T13:41:04.095Z,41.60
2023-05-14T13:43:27.402Z,40.70
2023-05-14T13:45:52.371Z,37.70
2023-05-14T13:48:16.025Z,43.40
2023-05-14T13:50:39.477Z,39.70
2023-05-14T13:53:02.881Z,40.80
2023-05-14T13:55:26.402Z,41.00
2023-05-14T13:57:49.876Z,42.10
2023-05-14T14:00:15.690Z,39.30
2023-05-14T14:02:40.347Z,40.80
2023-05-14T14:05:04.013Z,41.30
2023-05-14T14:07:27.468Z,43.20
2023-05-14T14:09:50.768Z,39.20
2023-05-14T14:12:14.166Z,39.50
2023-05-14T14:14:37.542Z,40.20
2023-05-14T14:17:01.223Z,42.20
2023-05-14T14:19:25.986Z,38.90
2023-05-14T14:24:17.689Z,40.10
2023-05-14T14:26:41.354Z,36.70
2023-05-14T14:29:04.949Z,38.40
2023-05-14T14:31:28.700Z,39.10
2023-05-14T14:33:52.209Z,37.40
2023-05-14T14:36:16.912Z,37.50
2023-05-14T14:38:40.291Z,39.60
2023-05-14T14:41:03.986Z,36.60
2023-05-14T14:43:27.515Z,40.10
2023-05-14T14:45:51.101Z,37.20
2023-05-14T14:48:26.643Z,38.00
2023-05-14T14:50:50.095Z,38.90
2023-05-14T14:53:14.851Z,40.40
2023-05-14T14:55:38.313Z,42.30
2023-05-14T14:58:01.677Z,42.40
2023-05-14T15:00:25.239Z,40.40
2023-05-14T15:02:48.715Z,39.20
2023-05-14T15:05:12.168Z,41.80
2023-05-14T15:07:35.449Z,42.70
2023-05-14T15:10:00.236Z,41.60
2023-05-14T15:12:23.658Z,45.20
2023-05-14T15:14:46.923Z,43.90
2023-05-14T15:17:10.518Z,41.50
2023-05-14T15:19:34.059Z,42.20
2023-05-14T15:21:57.804Z,40.30
2023-05-14T15:24:21.090Z,40.60
2023-05-14T15:26:45.897Z,44.00
2023-05-14T15:29:09.150Z,44.10
2023-05-14T15:31:32.922Z,45.50
2023-05-14T15:33:56.619Z,43.10
2023-05-14T15:36:19.949Z,43.80
2023-05-14T15:38:43.284Z,43.90
2023-05-14T15:41:07.589Z,43.60
2023-05-14T15:43:32.239Z,44.90
2023-05-14T15:45:55.965Z,44.30
2023-05-14T15:48:19.413Z,44.90
2023-05-14T15:50:43.432Z,46.80
2023-05-14T15:53:06.892Z,47.40
2023-05-14T15:55:30.462Z,46.70
2023-05-14T15:57:53.802Z,47.80
2023-05-14T16:00:19.748Z,45.50
2023-05-14T16:02:43.337Z,45.40
2023-05-14T16:05:08.569Z,44.60
2023-05-14T16:07:32.191Z,46.30
2023-05-14T16:09:55.573Z,46.90
2023-05-14T16:12:19.009Z,46.40
2023-05-14T16:14:42.454Z,47.60
2023-05-14T16:17:07.394Z,48.70
2023-05-14T16:19:30.802Z,45.50
2023-05-14T16:21:54.169Z,46.80
2023-05-14T16:24:19.548Z,47.80
2023-05-14T16:26:42.919Z,49.80
2023-05-14T16:29:06.658Z,50.20
2023-05-14T16:31:31.487Z,47.50
2023-05-14T16:33:56.137Z,48.80
2023-05-14T16:36:19.589Z,50.90
2023-05-14T16:39:05.383Z,49.00
2023-05-14T16:41:26.362Z,51.50
2023-05-14T16:43:51.153Z,48.40
2023-05-14T16:46:14.871Z,47.60
2023-05-14T16:48:38.226Z,51.00
2023-05-14T16:51:03.091Z,49.90
2023-05-14T16:53:26.498Z,48.90
2023-05-14T16:55:49.801Z,47.40
2023-05-14T16:58:13.069Z,50.80
2023-05-14T17:00:36.411Z,49.90
2023-05-14T17:02:59.966Z,48.80
2023-05-14T17:05:23.526Z,48.60
2023-05-14T17:07:48.517Z,49.70
2023-05-14T17:10:12.145Z,48.30
2023-05-14T17:12:35.536Z,47.70
2023-05-14T17:14:58.878Z,47.50
2023-05-14T17:17:22.237Z,48.50
2023-05-14T17:19:46.153Z,49.80
2023-05-14T17:22:09.590Z,50.20
2023-05-14T17:24:35.064Z,49.50
2023-05-14T17:26:58.367Z,48.00
2023-05-14T17:29:21.595Z,49.30
2023-05-14T17:31:44.912Z,49.60
2023-05-14T17:34:08.275Z,49.00
2023-05-14T17:36:32.288Z,51.00
2023-05-14T17:38:55.545Z,52.30
2023-05-14T17:41:20.217Z,49.80
2023-05-14T17:43:43.942Z,50.90
2023-05-14T17:46:07.381Z,52.60
2023-05-14T17:48:30.633Z,50.20
2023-05-14T17:50:53.972Z,50.40
2023-05-14T17:53:17.289Z,50.70
2023-05-14T17:55:43.747Z,50.30
2023-05-14T17:58:08.641Z,53.70
2023-05-14T18:00:32.467Z,50.60
2023-05-14T18:02:55.839Z,52.60
2023-05-14T18:05:20.664Z,52.50
2023-05-14T18:07:44.303Z,54.50
2023-05-14T18:10:09.453Z,51.80
2023-05-14T18:12:32.671Z,53.60
2023-05-14T18:14:57.330Z,53.00
2023-05-14T18:17:20.718Z,52.80
2023-05-14T18:19:44.035Z,52.70
2023-05-14T18:22:07.312Z,53.60
2023-05-14T18:24:31.033Z,55.20
2023-05-14T18:26:54.373Z,57.00
2023-05-14T18:29:17.720Z,55.70
2023-05-14T18:31:42.342Z,55.10
2023-05-14T18:34:05.647Z,57.50
2023-05-14T18:36:28.844Z,52.80
2023-05-14T18:38:52.120Z,55.70
2023-05-14T18:41:15.364Z,54.50
2023-05-14T18:43:38.654Z,54.90
2023-05-14T18:46:01.970Z,55.20
2023-05-14T18:48:26.620Z,55.50
2023-05-14T18:50:49.891Z,55.90
2023-05-14T18:53:13.105Z,59.10
2023-05-14T18:55:36.828Z,58.70
2023-05-14T18:58:00.171Z,56.00
2023-05-14T19:00:23.718Z,57.40
2023-05-14T19:02:47.113Z,58.10
2023-05-14T19:05:12.297Z,58.20
2023-05-14T19:07:35.711Z,60.60
2023-05-14T19:09:59.004Z,57.20
2023-05-14T19:12:22.315Z,58.10
2023-05-14T19:14:45.544Z,58.80
2023-05-14T19:17:09.171Z,58.80
2023-05-14T19:19:32.539Z,60.70
2023-05-14T19:21:57.386Z,61.80
2023-05-14T19:24:20.662Z,62.90
2023-05-14T19:26:44.045Z,59.30
2023-05-14T19:29:07.280Z,59.70
2023-05-14T19:31:30.661Z,61.00
2023-05-14T19:33:54.094Z,62.00
2023-05-14T19:36:17.422Z,60.40
2023-05-14T19:38:42.582Z,62.70
2023-05-14T19:41:05.805Z,60.00
2023-05-14T19:43:29.112Z,60.90
2023-05-14T19:45:52.420Z,62.30
2023-05-14T19:48:15.986Z,61.30
2023-05-14T19:50:39.485Z,62.80
2023-05-14T19:53:03.180Z,65.30
2023-05-14T19:55:27.755Z,62.50
2023-05-14T19:57:51.152Z,63.90
2023-05-14T20:00:15.649Z,63.80
2023-05-14T20:02:40.499Z,65.10
2023-05-14T20:05:03.899Z,65.00
2023-05-14T20:07:27.211Z,64.80
2023-05-14T20:09:50.550Z,64.40
2023-05-14T20:12:16.542Z,65.90
2023-05-14T20:14:41.048Z,66.80
2023-05-14T20:17:04.523Z,66.80
2023-05-14T20:19:27.854Z,66.30
2023-05-14T20:21:51.111Z,66.30
2023-05-14T20:24:14.408Z,67.50
2023-05-14T20:26:37.649Z,67.30
2023-05-14T20:29:02.302Z,67.20
2023-05-14T20:31:25.901Z,68.10
2023-05-14T20:33:49.422Z,68.10
2023-05-14T20:36:12.691Z,69.40
2023-05-14T20:38:36.004Z,69.00
2023-05-14T20:41:01.340Z,68.90
2023-05-14T20:43:25.132Z,69.80
2023-05-14T20:45:49.878Z,69.50
2023-05-14T20:48:16.259Z,69.70
2023-05-14T20:50:39.652Z,69.40
2023-05-14T20:53:03.685Z,70.50
2023-05-14T20:55:27.523Z,70.70
2023-05-14T20:57:51.296Z,70.00
2023-05-14T21:00:18.692Z,69.60
2023-05-14T21:02:43.555Z,69.80
2023-05-14T21:05:08.207Z,70.50
2023-05-14T21:07:31.760Z,70.80
2023-05-14T21:09:55.086Z,70.40
2023-05-14T21:12:18.354Z,70.10
2023-05-14T21:14:42.087Z,70.60
2023-05-14T21:17:05.818Z,71.60
2023-05-14T21:19:30.686Z,71.40
2023-05-14T21:21:54.080Z,71.80
2023-05-14T21:24:17.549Z,71.50
2023-05-14T21:26:41.409Z,72.00
2023-05-14T21:29:05.109Z,71.90
2023-05-14T21:31:28.372Z,72.10
2023-05-14T21:33:51.867Z,72.60
2023-05-14T21:36:16.576Z,72.40
2023-05-14T21:38:39.957Z,72.80
2023-05-14T21:41:03.387Z,73.10
2023-05-14T21:43:26.818Z,73.90
2023-05-14T21:45:50.049Z,73.90
2023-05-14T21:48:13.444Z,74.30
2023-05-14T21:50:37.263Z,74.70
2023-05-14T21:53:02.068Z,75.20
2023-05-14T21:55:26.986Z,76.00
2023-05-14T21:57:51.055Z,76.80
2023-05-14T22:00:18.548Z,77.20
2023-05-14T22:02:41.757Z,77.80
2023-05-14T22:05:05.749Z,78.40
2023-05-14T22:07:29.414Z,78.90
2023-05-14T22:09:58.361Z,78.90
2023-05-14T22:12:21.805Z,79.30
2023-05-14T22:14:45.092Z,79.70
2023-05-14T22:17:13.324Z,80.10
2023-05-14T22:19:36.533Z,80.80
2023-05-14T22:21:59.799Z,81.10
2023-05-14T22:24:23.210Z,81.10
2023-05-14T22:26:47.976Z,81.20
2023-05-14T22:29:11.360Z,81.50
2023-05-14T22:31:34.747Z,81.90
2023-05-14T22:33:58.059Z,82.00
2023-05-14T22:36:21.339Z,82.60
2023-05-14T22:38:44.957Z,83.20
2023-05-14T22:41:08.292Z,83.40
2023-05-14T22:43:33.304Z,83.50
2023-05-14T22:45:56.563Z,84.10
2023-05-14T22:48:19.880Z,84.70
2023-05-14T22:50:43.347Z,84.80
2023-05-14T22:53:06.717Z,84.90
2023-05-14T22:55:30.118Z,86.00
2023-05-14T22:57:53.407Z,86.50
2023-05-14T23:00:18.731Z,86.70
2023-05-14T23:02:42.177Z,86.70
2023-05-14T23:05:06.382Z,87.00
2023-05-14T23:07:29.755Z,86.90
2023-05-14T23:09:53.060Z,86.70
2023-05-14T23:12:16.283Z,86.90
2023-05-14T23:14:39.542Z,86.90
2023-05-14T23:17:04.319Z,87.80
2023-05-14T23:19:27.598Z,88.20
2023-05-14T23:21:50.895Z,88.50
2023-05-14T23:24:14.333Z,88.10
2023-05-14T23:26:37.952Z,88.50
2023-05-14T23:29:01.250Z,89.20
2023-05-14T23:31:24.599Z,89.50
2023-05-14T23:33:49.383Z,89.70
2023-05-14T23:36:12.689Z,89.60
2023-05-14T23:38:36.169Z,89.50
2023-05-14T23:40:59.451Z,89.70
2023-05-14T23:43:23.673Z,89.60
2023-05-14T23:45:47.070Z,89.70
2023-05-14T23:48:10.604Z,89.60
2023-05-14T23:50:35.230Z,89.30
2023-05-14T23:52:58.477Z,89.00
2023-05-14T23:55:22.357Z,89.50
2023-05-14T23:57:45.859Z,89.70
